sensor_id;sensor_type;location;lat;lon;timestamp;P1;durP1;ratioP1;P2;durP2;ratioP2
73515;SDS011;61763;51.416;5.442;2023-05-10T00:01:22;33.92;;;12.80;;
73515;SDS011;61763;51.416;5.442;2023-05-10T00:03:48;33.25;;;11.52;;
73515;SDS011;61763;51.416;5.442;2023-05-10T00:06:13;34.38;;;12.10;;
73515;SDS011;61763;51.416;5.442;2023-05-10T00:08:39;42.58;;;15.80;;
73515;SDS011;61763;51.416;5.442;2023-05-10T00:11:04;42.92;;;13.93;;
73515;SDS011;61763;51.416;5.442;2023-05-10T00:13:31;42.83;;;14.20;;
73515;SDS011;61763;51.416;5.442;2023-05-10T00:15:57;45.80;;;14.88;;
73515;SDS011;61763;51.416;5.442;2023-05-10T00:18:22;40.55;;;15.52;;
73515;SDS011;61763;51.416;5.442;2023-05-10T00:20:48;44.08;;;13.32;;
73515;SDS011;61763;51.416;5.442;2023-05-10T00:23:13;53.60;;;16.52;;
73515;SDS011;61763;51.416;5.442;2023-05-10T00:25:39;47.72;;;15.77;;
73515;SDS011;61763;51.416;5.442;2023-05-10T00:28:04;44.92;;;16.02;;
73515;SDS011;61763;51.416;5.442;2023-05-10T00:30:30;55.22;;;16.73;;
73515;SDS011;61763;51.416;5.442;2023-05-10T00:32:55;55.65;;;17.48;;
73515;SDS011;61763;51.416;5.442;2023-05-10T00:35:20;54.10;;;18.15;;
73515;SDS011;61763;51.416;5.442;2023-05-10T00:37:46;53.85;;;17.10;;
73515;SDS011;61763;51.416;5.442;2023-05-10T00:40:12;54.53;;;16.13;;
73515;SDS011;61763;51.416;5.442;2023-05-10T00:42:37;50.50;;;17.25;;
73515;SDS011;61763;51.416;5.442;2023-05-10T00:45:03;53.08;;;17.00;;
73515;SDS011;61763;51.416;5.442;2023-05-10T00:47:29;51.95;;;16.90;;
73515;SDS011;61763;51.416;5.442;2023-05-10T00:49:54;52.20;;;17.10;;
73515;SDS011;61763;51.416;5.442;2023-05-10T00:52:20;42.53;;;13.40;;
73515;SDS011;61763;51.416;5.442;2023-05-10T00:54:48;42.65;;;14.05;;
73515;SDS011;61763;51.416;5.442;2023-05-10T00:57:14;42.35;;;13.75;;
73515;SDS011;61763;51.416;5.442;2023-05-10T00:59:39;53.38;;;16.95;;
73515;SDS011;61763;51.416;5.442;2023-05-10T01:02:05;45.63;;;15.95;;
73515;SDS011;61763;51.416;5.442;2023-05-10T01:04:31;51.53;;;14.82;;
73515;SDS011;61763;51.416;5.442;2023-05-10T01:06:57;51.20;;;17.33;;
73515;SDS011;61763;51.416;5.442;2023-05-10T01:09:23;52.22;;;15.43;;
73515;SDS011;61763;51.416;5.442;2023-05-10T01:11:51;57.35;;;17.98;;
73515;SDS011;61763;51.416;5.442;2023-05-10T01:14:18;46.95;;;15.65;;
73515;SDS011;61763;51.416;5.442;2023-05-10T01:16:44;54.25;;;18.10;;
73515;SDS011;61763;51.416;5.442;2023-05-10T01:19:30;55.63;;;17.05;;
73515;SDS011;61763;51.416;5.442;2023-05-10T01:25:09;52.28;;;17.55;;
73515;SDS011;61763;51.416;5.442;2023-05-10T01:27:47;54.83;;;16.05;;
73515;SDS011;61763;51.416;5.442;2023-05-10T01:30:40;57.95;;;17.98;;
73515;SDS011;61763;51.416;5.442;2023-05-10T01:47:05;45.13;;;15.00;;
73515;SDS011;61763;51.416;5.442;2023-05-10T01:49:37;49.60;;;18.13;;
73515;SDS011;61763;51.416;5.442;2023-05-10T01:52:08;48.70;;;17.00;;
73515;SDS011;61763;51.416;5.442;2023-05-10T01:54:38;49.88;;;17.92;;
73515;SDS011;61763;51.416;5.442;2023-05-10T01:57:09;52.13;;;16.10;;
73515;SDS011;61763;51.416;5.442;2023-05-10T01:59:39;50.80;;;16.52;;
73515;SDS011;61763;51.416;5.442;2023-05-10T02:02:08;52.15;;;17.13;;
73515;SDS011;61763;51.416;5.442;2023-05-10T02:04:37;53.92;;;19.13;;
73515;SDS011;61763;51.416;5.442;2023-05-10T02:07:04;49.72;;;18.80;;
73515;SDS011;61763;51.416;5.442;2023-05-10T02:09:32;57.90;;;18.92;;
73515;SDS011;61763;51.416;5.442;2023-05-10T02:11:59;59.22;;;18.35;;
73515;SDS011;61763;51.416;5.442;2023-05-10T02:14:27;61.42;;;20.98;;
73515;SDS011;61763;51.416;5.442;2023-05-10T02:16:55;68.38;;;23.30;;
73515;SDS011;61763;51.416;5.442;2023-05-10T02:19:22;71.75;;;21.92;;
73515;SDS011;61763;51.416;5.442;2023-05-10T02:21:48;68.43;;;22.80;;
73515;SDS011;61763;51.416;5.442;2023-05-10T02:24:16;66.97;;;20.25;;
73515;SDS011;61763;51.416;5.442;2023-05-10T02:26:43;70.32;;;23.25;;
73515;SDS011;61763;51.416;5.442;2023-05-10T02:29:10;65.88;;;21.52;;
73515;SDS011;61763;51.416;5.442;2023-05-10T02:31:37;69.25;;;21.52;;
73515;SDS011;61763;51.416;5.442;2023-05-10T02:34:03;57.67;;;18.30;;
73515;SDS011;61763;51.416;5.442;2023-05-10T02:36:32;67.35;;;22.08;;
73515;SDS011;61763;51.416;5.442;2023-05-10T02:38:58;61.33;;;19.77;;
73515;SDS011;61763;51.416;5.442;2023-05-10T02:41:26;65.95;;;21.45;;
73515;SDS011;61763;51.416;5.442;2023-05-10T02:43:54;61.97;;;23.02;;
73515;SDS011;61763;51.416;5.442;2023-05-10T02:46:22;56.20;;;20.58;;
73515;SDS011;61763;51.416;5.442;2023-05-10T02:48:48;60.55;;;22.20;;
73515;SDS011;61763;51.416;5.442;2023-05-10T02:51:13;58.10;;;21.95;;
73515;SDS011;61763;51.416;5.442;2023-05-10T02:53:43;55.92;;;18.58;;
73515;SDS011;61763;51.416;5.442;2023-05-10T02:56:15;59.28;;;20.45;;
73515;SDS011;61763;51.416;5.442;2023-05-10T02:58:49;61.20;;;22.45;;
73515;SDS011;61763;51.416;5.442;2023-05-10T03:01:15;70.63;;;22.83;;
73515;SDS011;61763;51.416;5.442;2023-05-10T03:03:41;59.60;;;20.65;;
73515;SDS011;61763;51.416;5.442;2023-05-10T03:06:06;61.30;;;18.85;;
73515;SDS011;61763;51.416;5.442;2023-05-10T03:08:32;61.08;;;18.35;;
73515;SDS011;61763;51.416;5.442;2023-05-10T03:16:16;52.92;;;18.83;;
73515;SDS011;61763;51.416;5.442;2023-05-10T03:21:25;55.88;;;19.55;;
73515;SDS011;61763;51.416;5.442;2023-05-10T03:23:57;51.13;;;19.65;;
73515;SDS011;61763;51.416;5.442;2023-05-10T03:26:24;49.10;;;16.85;;
73515;SDS011;61763;51.416;5.442;2023-05-10T03:28:53;48.42;;;18.05;;
73515;SDS011;61763;51.416;5.442;2023-05-10T03:31:19;51.50;;;18.40;;
73515;SDS011;61763;51.416;5.442;2023-05-10T03:33:46;49.55;;;18.23;;
73515;SDS011;61763;51.416;5.442;2023-05-10T03:36:15;51.67;;;18.00;;
73515;SDS011;61763;51.416;5.442;2023-05-10T03:38:41;49.00;;;18.58;;
73515;SDS011;61763;51.416;5.442;2023-05-10T03:41:06;53.75;;;16.05;;
73515;SDS011;61763;51.416;5.442;2023-05-10T03:43:32;52.25;;;16.60;;
73515;SDS011;61763;51.416;5.442;2023-05-10T03:45:57;52.17;;;18.48;;
73515;SDS011;61763;51.416;5.442;2023-05-10T03:48:22;52.53;;;19.63;;
73515;SDS011;61763;51.416;5.442;2023-05-10T03:50:48;44.45;;;15.73;;
73515;SDS011;61763;51.416;5.442;2023-05-10T03:53:14;46.17;;;18.40;;
73515;SDS011;61763;51.416;5.442;2023-05-10T03:55:40;59.88;;;19.17;;
73515;SDS011;61763;51.416;5.442;2023-05-10T03:58:05;54.70;;;19.42;;
73515;SDS011;61763;51.416;5.442;2023-05-10T04:00:30;57.83;;;18.33;;
73515;SDS011;61763;51.416;5.442;2023-05-10T04:02:56;61.20;;;18.83;;
73515;SDS011;61763;51.416;5.442;2023-05-10T04:05:21;64.63;;;19.73;;
73515;SDS011;61763;51.416;5.442;2023-05-10T04:07:47;69.10;;;20.40;;
73515;SDS011;61763;51.416;5.442;2023-05-10T04:10:14;73.75;;;20.15;;
73515;SDS011;61763;51.416;5.442;2023-05-10T04:12:41;66.93;;;19.35;;
73515;SDS011;61763;51.416;5.442;2023-05-10T04:15:07;73.75;;;22.65;;
73515;SDS011;61763;51.416;5.442;2023-05-10T04:17:33;78.20;;;21.13;;
73515;SDS011;61763;51.416;5.442;2023-05-10T04:19:58;75.38;;;22.25;;
73515;SDS011;61763;51.416;5.442;2023-05-10T04:22:24;78.15;;;22.00;;
73515;SDS011;61763;51.416;5.442;2023-05-10T04:24:49;82.88;;;23.15;;
73515;SDS011;61763;51.416;5.442;2023-05-10T04:27:14;80.68;;;20.63;;
73515;SDS011;61763;51.416;5.442;2023-05-10T04:29:40;83.50;;;23.95;;
73515;SDS011;61763;51.416;5.442;2023-05-10T04:32:05;79.85;;;22.55;;
73515;SDS011;61763;51.416;5.442;2023-05-10T04:34:30;72.97;;;23.48;;
73515;SDS011;61763;51.416;5.442;2023-05-10T04:36:56;77.53;;;24.88;;
73515;SDS011;61763;51.416;5.442;2023-05-10T04:39:21;69.82;;;22.52;;
73515;SDS011;61763;51.416;5.442;2023-05-10T04:41:47;68.03;;;22.33;;
73515;SDS011;61763;51.416;5.442;2023-05-10T04:44:12;75.53;;;21.27;;
73515;SDS011;61763;51.416;5.442;2023-05-10T04:46:37;73.07;;;21.15;;
73515;SDS011;61763;51.416;5.442;2023-05-10T04:49:03;74.43;;;21.70;;
73515;SDS011;61763;51.416;5.442;2023-05-10T04:51:28;74.18;;;21.58;;
73515;SDS011;61763;51.416;5.442;2023-05-10T04:53:53;67.90;;;18.77;;
73515;SDS011;61763;51.416;5.442;2023-05-10T04:56:19;67.28;;;20.73;;
73515;SDS011;61763;51.416;5.442;2023-05-10T04:58:44;56.60;;;19.95;;
73515;SDS011;61763;51.416;5.442;2023-05-10T05:01:09;61.22;;;17.92;;
73515;SDS011;61763;51.416;5.442;2023-05-10T05:03:35;60.17;;;21.00;;
73515;SDS011;61763;51.416;5.442;2023-05-10T05:06:01;62.40;;;18.80;;
73515;SDS011;61763;51.416;5.442;2023-05-10T05:08:27;56.33;;;18.38;;
73515;SDS011;61763;51.416;5.442;2023-05-10T05:10:52;56.20;;;17.17;;
73515;SDS011;61763;51.416;5.442;2023-05-10T05:13:18;54.33;;;16.83;;
73515;SDS011;61763;51.416;5.442;2023-05-10T05:15:43;48.05;;;16.67;;
73515;SDS011;61763;51.416;5.442;2023-05-10T05:18:09;46.25;;;15.30;;
73515;SDS011;61763;51.416;5.442;2023-05-10T05:20:35;46.67;;;17.65;;
73515;SDS011;61763;51.416;5.442;2023-05-10T05:23:00;45.63;;;17.65;;
73515;SDS011;61763;51.416;5.442;2023-05-10T05:25:26;41.03;;;15.48;;
73515;SDS011;61763;51.416;5.442;2023-05-10T05:27:51;37.10;;;14.80;;
73515;SDS011;61763;51.416;5.442;2023-05-10T05:30:17;37.75;;;15.90;;
73515;SDS011;61763;51.416;5.442;2023-05-10T05:32:42;37.08;;;15.73;;
73515;SDS011;61763;51.416;5.442;2023-05-10T05:35:08;30.38;;;15.18;;
73515;SDS011;61763;51.416;5.442;2023-05-10T05:37:33;37.13;;;13.63;;
73515;SDS011;61763;51.416;5.442;2023-05-10T05:39:58;31.90;;;12.75;;
73515;SDS011;61763;51.416;5.442;2023-05-10T05:42:26;35.47;;;13.23;;
73515;SDS011;61763;51.416;5.442;2023-05-10T05:44:51;28.50;;;12.07;;
73515;SDS011;61763;51.416;5.442;2023-05-10T05:47:16;32.97;;;14.15;;
73515;SDS011;61763;51.416;5.442;2023-05-10T05:49:42;31.88;;;14.15;;
73515;SDS011;61763;51.416;5.442;2023-05-10T05:52:10;28.80;;;12.10;;
73515;SDS011;61763;51.416;5.442;2023-05-10T05:54:36;32.70;;;12.98;;
73515;SDS011;61763;51.416;5.442;2023-05-10T05:57:01;28.23;;;11.68;;
73515;SDS011;61763;51.416;5.442;2023-05-10T05:59:26;31.27;;;13.57;;
73515;SDS011;61763;51.416;5.442;2023-05-10T06:01:52;30.33;;;14.10;;
73515;SDS011;61763;51.416;5.442;2023-05-10T06:04:18;35.03;;;11.95;;
73515;SDS011;61763;51.416;5.442;2023-05-10T06:06:43;31.17;;;12.63;;
73515;SDS011;61763;51.416;5.442;2023-05-10T06:09:09;24.95;;;11.18;;
73515;SDS011;61763;51.416;5.442;2023-05-10T06:11:35;27.35;;;13.82;;
73515;SDS011;61763;51.416;5.442;2023-05-10T06:14:01;27.92;;;13.60;;
73515;SDS011;61763;51.416;5.442;2023-05-10T06:16:28;27.88;;;12.45;;
73515;SDS011;61763;51.416;5.442;2023-05-10T06:18:53;27.33;;;11.18;;
73515;SDS011;61763;51.416;5.442;2023-05-10T06:21:19;30.50;;;12.90;;
73515;SDS011;61763;51.416;5.442;2023-05-10T06:23:44;25.48;;;10.68;;
73515;SDS011;61763;51.416;5.442;2023-05-10T06:26:10;27.40;;;11.32;;
73515;SDS011;61763;51.416;5.442;2023-05-10T06:28:35;31.48;;;15.38;;
73515;SDS011;61763;51.416;5.442;2023-05-10T06:33:28;32.03;;;14.00;;
73515;SDS011;61763;51.416;5.442;2023-05-10T06:35:54;31.88;;;13.73;;
73515;SDS011;61763;51.416;5.442;2023-05-10T06:38:19;27.60;;;12.60;;
73515;SDS011;61763;51.416;5.442;2023-05-10T06:40:44;24.90;;;13.68;;
73515;SDS011;61763;51.416;5.442;2023-05-10T06:43:10;25.45;;;11.73;;
73515;SDS011;61763;51.416;5.442;2023-05-10T06:45:35;25.25;;;12.20;;
73515;SDS011;61763;51.416;5.442;2023-05-10T06:48:01;25.80;;;11.27;;
73515;SDS011;61763;51.416;5.442;2023-05-10T06:50:26;27.80;;;12.77;;
73515;SDS011;61763;51.416;5.442;2023-05-10T06:52:51;26.38;;;14.05;;
73515;SDS011;61763;51.416;5.442;2023-05-10T06:55:17;27.88;;;12.77;;
73515;SDS011;61763;51.416;5.442;2023-05-10T06:57:42;28.92;;;14.73;;
73515;SDS011;61763;51.416;5.442;2023-05-10T07:00:08;29.75;;;13.75;;
73515;SDS011;61763;51.416;5.442;2023-05-10T07:02:34;25.77;;;12.50;;
73515;SDS011;61763;51.416;5.442;2023-05-10T07:05:00;27.05;;;12.93;;
73515;SDS011;61763;51.416;5.442;2023-05-10T07:07:25;24.77;;;13.43;;
73515;SDS011;61763;51.416;5.442;2023-05-10T07:09:51;26.80;;;13.50;;
73515;SDS011;61763;51.416;5.442;2023-05-10T07:12:16;26.52;;;13.73;;
73515;SDS011;61763;51.416;5.442;2023-05-10T07:14:42;23.08;;;10.88;;
73515;SDS011;61763;51.416;5.442;2023-05-10T07:17:07;21.55;;;12.13;;
73515;SDS011;61763;51.416;5.442;2023-05-10T07:19:34;21.10;;;11.13;;
73515;SDS011;61763;51.416;5.442;2023-05-10T07:21:59;24.15;;;12.40;;
73515;SDS011;61763;51.416;5.442;2023-05-10T07:24:25;26.13;;;12.75;;
73515;SDS011;61763;51.416;5.442;2023-05-10T07:26:50;20.88;;;10.45;;
73515;SDS011;61763;51.416;5.442;2023-05-10T07:29:15;22.13;;;11.65;;
73515;SDS011;61763;51.416;5.442;2023-05-10T07:31:41;22.77;;;11.63;;
73515;SDS011;61763;51.416;5.442;2023-05-10T07:34:07;22.25;;;9.95;;
73515;SDS011;61763;51.416;5.442;2023-05-10T07:36:33;22.25;;;9.75;;
73515;SDS011;61763;51.416;5.442;2023-05-10T07:38:59;17.77;;;8.60;;
73515;SDS011;61763;51.416;5.442;2023-05-10T07:41:24;17.25;;;7.85;;
73515;SDS011;61763;51.416;5.442;2023-05-10T07:43:50;15.38;;;7.20;;
73515;SDS011;61763;51.416;5.442;2023-05-10T07:46:15;14.88;;;7.55;;
73515;SDS011;61763;51.416;5.442;2023-05-10T07:48:40;13.70;;;6.13;;
73515;SDS011;61763;51.416;5.442;2023-05-10T07:51:06;16.60;;;7.05;;
73515;SDS011;61763;51.416;5.442;2023-05-10T07:53:34;13.13;;;6.93;;
73515;SDS011;61763;51.416;5.442;2023-05-10T07:56:19;13.38;;;5.93;;
73515;SDS011;61763;51.416;5.442;2023-05-10T07:58:56;12.43;;;4.78;;
73515;SDS011;61763;51.416;5.442;2023-05-10T08:01:23;10.90;;;5.13;;
73515;SDS011;61763;51.416;5.442;2023-05-10T08:03:48;8.18;;;4.10;;
73515;SDS011;61763;51.416;5.442;2023-05-10T08:06:16;15.50;;;7.28;;
73515;SDS011;61763;51.416;5.442;2023-05-10T08:08:42;10.32;;;5.85;;
73515;SDS011;61763;51.416;5.442;2023-05-10T08:11:08;10.55;;;6.78;;
73515;SDS011;61763;51.416;5.442;2023-05-10T08:13:33;12.07;;;5.22;;
73515;SDS011;61763;51.416;5.442;2023-05-10T08:15:59;11.35;;;6.72;;
73515;SDS011;61763;51.416;5.442;2023-05-10T08:18:24;11.70;;;5.07;;
73515;SDS011;61763;51.416;5.442;2023-05-10T08:20:49;10.50;;;5.10;;
73515;SDS011;61763;51.416;5.442;2023-05-10T08:23:15;8.63;;;5.43;;
73515;SDS011;61763;51.416;5.442;2023-05-10T08:25:40;12.15;;;6.45;;
73515;SDS011;61763;51.416;5.442;2023-05-10T08:28:06;11.40;;;6.90;;
73515;SDS011;61763;51.416;5.442;2023-05-10T08:30:31;12.90;;;5.63;;
73515;SDS011;61763;51.416;5.442;2023-05-10T08:32:56;12.27;;;6.28;;
73515;SDS011;61763;51.416;5.442;2023-05-10T08:35:22;15.10;;;7.25;;
73515;SDS011;61763;51.416;5.442;2023-05-10T08:37:47;11.10;;;7.28;;
73515;SDS011;61763;51.416;5.442;2023-05-10T08:40:13;9.68;;;6.13;;
73515;SDS011;61763;51.416;5.442;2023-05-10T08:42:41;10.40;;;6.28;;
73515;SDS011;61763;51.416;5.442;2023-05-10T08:45:12;10.43;;;5.05;;
73515;SDS011;61763;51.416;5.442;2023-05-10T08:50:05;9.13;;;4.97;;
73515;SDS011;61763;51.416;5.442;2023-05-10T08:52:32;6.75;;;3.65;;
73515;SDS011;61763;51.416;5.442;2023-05-10T08:54:58;9.05;;;5.25;;
73515;SDS011;61763;51.416;5.442;2023-05-10T08:57:24;7.63;;;4.15;;
73515;SDS011;61763;51.416;5.442;2023-05-10T08:59:49;10.68;;;5.53;;
73515;SDS011;61763;51.416;5.442;2023-05-10T09:02:15;7.97;;;3.60;;
73515;SDS011;61763;51.416;5.442;2023-05-10T09:04:43;8.35;;;5.88;;
73515;SDS011;61763;51.416;5.442;2023-05-10T09:07:08;7.47;;;3.88;;
73515;SDS011;61763;51.416;5.442;2023-05-10T09:09:35;9.70;;;5.43;;
73515;SDS011;61763;51.416;5.442;2023-05-10T09:12:01;7.80;;;4.03;;
73515;SDS011;61763;51.416;5.442;2023-05-10T09:14:27;9.82;;;6.53;;
73515;SDS011;61763;51.416;5.442;2023-05-10T09:16:53;9.60;;;5.38;;
73515;SDS011;61763;51.416;5.442;2023-05-10T09:19:20;10.48;;;6.25;;
73515;SDS011;61763;51.416;5.442;2023-05-10T09:21:45;9.35;;;5.78;;
73515;SDS011;61763;51.416;5.442;2023-05-10T09:24:11;9.75;;;4.47;;
73515;SDS011;61763;51.416;5.442;2023-05-10T09:26:45;11.05;;;7.40;;
73515;SDS011;61763;51.416;5.442;2023-05-10T09:29:15;9.77;;;6.50;;
73515;SDS011;61763;51.416;5.442;2023-05-10T09:34:31;9.00;;;5.35;;
73515;SDS011;61763;51.416;5.442;2023-05-10T09:36:58;9.25;;;6.65;;
73515;SDS011;61763;51.416;5.442;2023-05-10T09:39:32;9.15;;;6.25;;
73515;SDS011;61763;51.416;5.442;2023-05-10T09:42:06;10.80;;;7.03;;
73515;SDS011;61763;51.416;5.442;2023-05-10T09:44:34;9.90;;;5.22;;
73515;SDS011;61763;51.416;5.442;2023-05-10T09:47:03;9.32;;;5.47;;
73515;SDS011;61763;51.416;5.442;2023-05-10T09:49:29;12.82;;;7.22;;
73515;SDS011;61763;51.416;5.442;2023-05-10T09:52:02;9.80;;;5.30;;
73515;SDS011;61763;51.416;5.442;2023-05-10T09:54:29;12.35;;;6.65;;
73515;SDS011;61763;51.416;5.442;2023-05-10T09:56:55;11.73;;;7.28;;
73515;SDS011;61763;51.416;5.442;2023-05-10T09:59:20;9.60;;;4.82;;
73515;SDS011;61763;51.416;5.442;2023-05-10T10:01:49;11.80;;;4.95;;
73515;SDS011;61763;51.416;5.442;2023-05-10T10:04:16;9.45;;;6.05;;
73515;SDS011;61763;51.416;5.442;2023-05-10T10:06:42;7.75;;;4.47;;
73515;SDS011;61763;51.416;5.442;2023-05-10T10:09:08;8.10;;;4.88;;
73515;SDS011;61763;51.416;5.442;2023-05-10T10:11:34;7.72;;;5.43;;
73515;SDS011;61763;51.416;5.442;2023-05-10T10:14:01;7.85;;;6.32;;
73515;SDS011;61763;51.416;5.442;2023-05-10T10:16:27;8.52;;;5.93;;
73515;SDS011;61763;51.416;5.442;2023-05-10T10:18:54;5.97;;;4.18;;
73515;SDS011;61763;51.416;5.442;2023-05-10T10:21:20;5.70;;;4.28;;
73515;SDS011;61763;51.416;5.442;2023-05-10T10:23:46;8.57;;;3.50;;
73515;SDS011;61763;51.416;5.442;2023-05-10T10:26:11;5.78;;;4.15;;
73515;SDS011;61763;51.416;5.442;2023-05-10T10:28:48;7.30;;;2.92;;
73515;SDS011;61763;51.416;5.442;2023-05-10T10:31:30;5.78;;;3.50;;
73515;SDS011;61763;51.416;5.442;2023-05-10T10:34:06;7.40;;;4.30;;
73515;SDS011;61763;51.416;5.442;2023-05-10T10:36:39;7.53;;;5.18;;
73515;SDS011;61763;51.416;5.442;2023-05-10T10:39:10;12.13;;;4.45;;
73515;SDS011;61763;51.416;5.442;2023-05-10T10:41:37;9.98;;;5.43;;
73515;SDS011;61763;51.416;5.442;2023-05-10T10:54:53;12.05;;;6.90;;
73515;SDS011;61763;51.416;5.442;2023-05-10T10:57:25;13.15;;;7.22;;
73515;SDS011;61763;51.416;5.442;2023-05-10T10:59:51;15.73;;;8.75;;
73515;SDS011;61763;51.416;5.442;2023-05-10T11:02:42;14.07;;;8.10;;
73515;SDS011;61763;51.416;5.442;2023-05-10T11:07:54;14.27;;;7.32;;
73515;SDS011;61763;51.416;5.442;2023-05-10T11:10:21;14.52;;;9.48;;
73515;SDS011;61763;51.416;5.442;2023-05-10T11:13:06;14.02;;;7.72;;
73515;SDS011;61763;51.416;5.442;2023-05-10T11:17:58;11.07;;;8.02;;
73515;SDS011;61763;51.416;5.442;2023-05-10T11:20:28;13.70;;;8.68;;
73515;SDS011;61763;51.416;5.442;2023-05-10T11:22:59;14.82;;;7.47;;
73515;SDS011;61763;51.416;5.442;2023-05-10T11:28:10;14.07;;;9.25;;
73515;SDS011;61763;51.416;5.442;2023-05-10T11:30:38;16.80;;;8.90;;
73515;SDS011;61763;51.416;5.442;2023-05-10T11:33:05;15.82;;;8.63;;
73515;SDS011;61763;51.416;5.442;2023-05-10T11:35:36;16.48;;;8.90;;
73515;SDS011;61763;51.416;5.442;2023-05-10T11:38:04;15.07;;;9.05;;
73515;SDS011;61763;51.416;5.442;2023-05-10T11:40:34;17.40;;;9.57;;
73515;SDS011;61763;51.416;5.442;2023-05-10T11:42:59;15.63;;;10.25;;
73515;SDS011;61763;51.416;5.442;2023-05-10T11:45:25;15.80;;;9.38;;
73515;SDS011;61763;51.416;5.442;2023-05-10T11:47:51;16.73;;;10.57;;
73515;SDS011;61763;51.416;5.442;2023-05-10T11:50:17;15.00;;;9.15;;
73515;SDS011;61763;51.416;5.442;2023-05-10T11:52:42;15.70;;;8.38;;
73515;SDS011;61763;51.416;5.442;2023-05-10T11:55:08;15.07;;;8.50;;
73515;SDS011;61763;51.416;5.442;2023-05-10T11:57:34;16.05;;;8.25;;
73515;SDS011;61763;51.416;5.442;2023-05-10T12:00:03;15.10;;;8.73;;
73515;SDS011;61763;51.416;5.442;2023-05-10T12:02:29;17.42;;;10.82;;
73515;SDS011;61763;51.416;5.442;2023-05-10T12:04:55;17.00;;;8.90;;
73515;SDS011;61763;51.416;5.442;2023-05-10T12:07:21;19.35;;;9.35;;
73515;SDS011;61763;51.416;5.442;2023-05-10T12:12:42;16.13;;;7.57;;
73515;SDS011;61763;51.416;5.442;2023-05-10T12:15:17;14.88;;;7.97;;
73515;SDS011;61763;51.416;5.442;2023-05-10T12:17:44;16.95;;;8.65;;
73515;SDS011;61763;51.416;5.442;2023-05-10T12:20:14;17.63;;;8.32;;
73515;SDS011;61763;51.416;5.442;2023-05-10T12:22:40;18.38;;;9.80;;
73515;SDS011;61763;51.416;5.442;2023-05-10T12:25:08;18.90;;;8.07;;
73515;SDS011;61763;51.416;5.442;2023-05-10T12:27:35;14.57;;;7.97;;
73515;SDS011;61763;51.416;5.442;2023-05-10T12:30:00;13.15;;;7.40;;
73515;SDS011;61763;51.416;5.442;2023-05-10T12:32:40;16.67;;;7.38;;
73515;SDS011;61763;51.416;5.442;2023-05-10T12:35:06;14.60;;;7.03;;
73515;SDS011;61763;51.416;5.442;2023-05-10T12:37:32;11.90;;;7.22;;
73515;SDS011;61763;51.416;5.442;2023-05-10T12:40:00;17.55;;;8.27;;
73515;SDS011;61763;51.416;5.442;2023-05-10T12:42:27;17.05;;;10.80;;
73515;SDS011;61763;51.416;5.442;2023-05-10T12:44:56;13.70;;;8.40;;
73515;SDS011;61763;51.416;5.442;2023-05-10T12:47:22;10.32;;;5.75;;
73515;SDS011;61763;51.416;5.442;2023-05-10T12:49:47;9.23;;;4.32;;
73515;SDS011;61763;51.416;5.442;2023-05-10T12:52:12;5.95;;;3.08;;
73515;SDS011;61763;51.416;5.442;2023-05-10T12:54:38;3.72;;;2.42;;
73515;SDS011;61763;51.416;5.442;2023-05-10T12:57:03;6.05;;;3.28;;
73515;SDS011;61763;51.416;5.442;2023-05-10T12:59:29;6.00;;;4.97;;
73515;SDS011;61763;51.416;5.442;2023-05-10T13:01:54;6.78;;;4.63;;
73515;SDS011;61763;51.416;5.442;2023-05-10T13:04:22;6.22;;;4.05;;
73515;SDS011;61763;51.416;5.442;2023-05-10T13:06:47;7.47;;;5.47;;
73515;SDS011;61763;51.416;5.442;2023-05-10T13:09:12;8.85;;;4.85;;
73515;SDS011;61763;51.416;5.442;2023-05-10T13:11:38;9.30;;;4.43;;
73515;SDS011;61763;51.416;5.442;2023-05-10T13:14:03;8.02;;;5.43;;
73515;SDS011;61763;51.416;5.442;2023-05-10T13:16:29;12.68;;;5.72;;
73515;SDS011;61763;51.416;5.442;2023-05-10T13:18:54;7.00;;;4.85;;
73515;SDS011;61763;51.416;5.442;2023-05-10T13:21:20;7.63;;;4.35;;
73515;SDS011;61763;51.416;5.442;2023-05-10T13:23:46;6.95;;;4.57;;
73515;SDS011;61763;51.416;5.442;2023-05-10T13:26:11;9.00;;;5.82;;
73515;SDS011;61763;51.416;5.442;2023-05-10T13:28:37;8.13;;;6.10;;
73515;SDS011;61763;51.416;5.442;2023-05-10T13:31:03;9.60;;;5.47;;
73515;SDS011;61763;51.416;5.442;2023-05-10T13:33:29;9.10;;;5.72;;
73515;SDS011;61763;51.416;5.442;2023-05-10T13:35:55;11.25;;;7.50;;
73515;SDS011;61763;51.416;5.442;2023-05-10T13:38:20;12.35;;;8.85;;
73515;SDS011;61763;51.416;5.442;2023-05-10T13:40:46;16.30;;;8.23;;
73515;SDS011;61763;51.416;5.442;2023-05-10T13:43:11;14.35;;;8.10;;
73515;SDS011;61763;51.416;5.442;2023-05-10T13:45:37;16.90;;;9.35;;
73515;SDS011;61763;51.416;5.442;2023-05-10T13:48:02;12.65;;;7.93;;
73515;SDS011;61763;51.416;5.442;2023-05-10T13:50:27;14.43;;;9.02;;
73515;SDS011;61763;51.416;5.442;2023-05-10T13:52:53;14.80;;;7.05;;
73515;SDS011;61763;51.416;5.442;2023-05-10T13:55:18;12.30;;;6.60;;
73515;SDS011;61763;51.416;5.442;2023-05-10T13:57:44;9.73;;;5.43;;
73515;SDS011;61763;51.416;5.442;2023-05-10T14:00:09;10.30;;;6.40;;
73515;SDS011;61763;51.416;5.442;2023-05-10T14:02:35;10.77;;;6.38;;
73515;SDS011;61763;51.416;5.442;2023-05-10T14:05:00;9.90;;;6.55;;
73515;SDS011;61763;51.416;5.442;2023-05-10T14:07:26;10.32;;;5.45;;
73515;SDS011;61763;51.416;5.442;2023-05-10T14:09:51;11.15;;;6.45;;
73515;SDS011;61763;51.416;5.442;2023-05-10T14:12:17;12.45;;;5.22;;
73515;SDS011;61763;51.416;5.442;2023-05-10T14:14:42;11.70;;;6.78;;
73515;SDS011;61763;51.416;5.442;2023-05-10T14:17:07;11.95;;;6.45;;
73515;SDS011;61763;51.416;5.442;2023-05-10T14:19:33;10.40;;;6.57;;
73515;SDS011;61763;51.416;5.442;2023-05-10T14:21:59;9.23;;;5.38;;
73515;SDS011;61763;51.416;5.442;2023-05-10T14:24:24;9.63;;;4.10;;
73515;SDS011;61763;51.416;5.442;2023-05-10T14:26:51;8.30;;;4.47;;
73515;SDS011;61763;51.416;5.442;2023-05-10T14:29:18;6.90;;;3.50;;
73515;SDS011;61763;51.416;5.442;2023-05-10T14:31:45;10.02;;;4.10;;
73515;SDS011;61763;51.416;5.442;2023-05-10T14:34:10;7.15;;;3.53;;
73515;SDS011;61763;51.416;5.442;2023-05-10T14:36:35;7.88;;;3.42;;
73515;SDS011;61763;51.416;5.442;2023-05-10T14:39:01;6.45;;;2.72;;
73515;SDS011;61763;51.416;5.442;2023-05-10T14:41:26;6.30;;;2.85;;
73515;SDS011;61763;51.416;5.442;2023-05-10T14:43:52;7.18;;;4.35;;
73515;SDS011;61763;51.416;5.442;2023-05-10T14:46:17;8.15;;;4.00;;
73515;SDS011;61763;51.416;5.442;2023-05-10T14:48:43;9.88;;;4.65;;
73515;SDS011;61763;51.416;5.442;2023-05-10T14:51:08;9.95;;;5.32;;
73515;SDS011;61763;51.416;5.442;2023-05-10T14:53:33;9.48;;;4.50;;
73515;SDS011;61763;51.416;5.442;2023-05-10T14:55:59;9.30;;;4.72;;
73515;SDS011;61763;51.416;5.442;2023-05-10T14:58:26;10.35;;;5.00;;
73515;SDS011;61763;51.416;5.442;2023-05-10T15:00:51;9.32;;;4.35;;
73515;SDS011;61763;51.416;5.442;2023-05-10T15:03:17;9.95;;;5.60;;
73515;SDS011;61763;51.416;5.442;2023-05-10T15:05:42;9.73;;;4.18;;
73515;SDS011;61763;51.416;5.442;2023-05-10T15:08:08;8.48;;;4.00;;
73515;SDS011;61763;51.416;5.442;2023-05-10T15:10:35;9.57;;;6.15;;
73515;SDS011;61763;51.416;5.442;2023-05-10T15:13:01;8.95;;;4.75;;
73515;SDS011;61763;51.416;5.442;2023-05-10T15:15:28;8.73;;;5.57;;
73515;SDS011;61763;51.416;5.442;2023-05-10T15:17:53;11.32;;;6.32;;
73515;SDS011;61763;51.416;5.442;2023-05-10T15:20:19;9.60;;;4.88;;
73515;SDS011;61763;51.416;5.442;2023-05-10T15:22:44;12.73;;;6.25;;